sensor_id;sensor_type;location;lat;lon;timestamp;P1;durP1;ratioP1;P2;durP2;ratioP2
21905;SDS011;11117;48.644;9.006;2022-08-19T00:00:51;22.70;;;17.23;;
21905;SDS011;11117;48.644;9.006;2022-08-19T00:03:17;25.25;;;16.50;;
21905;SDS011;11117;48.644;9.006;2022-08-19T00:05:43;20.83;;;16.33;;
21905;SDS011;11117;48.644;9.006;2022-08-19T00:08:08;21.67;;;15.60;;
21905;SDS011;11117;48.644;9.006;2022-08-19T00:10:34;21.92;;;16.50;;
21905;SDS011;11117;48.644;9.006;2022-08-19T00:12:59;21.92;;;16.80;;
21905;SDS011;11117;48.644;9.006;2022-08-19T00:15:25;20.27;;;15.77;;
21905;SDS011;11117;48.644;9.006;2022-08-19T00:17:51;19.92;;;16.10;;
21905;SDS011;11117;48.644;9.006;2022-08-19T00:20:18;22.80;;;16.38;;
21905;SDS011;11117;48.644;9.006;2022-08-19T00:22:45;26.52;;;17.45;;
21905;SDS011;11117;48.644;9.006;2022-08-19T00:25:12;22.30;;;15.85;;
21905;SDS011;11117;48.644;9.006;2022-08-19T00:27:38;21.33;;;16.35;;
21905;SDS011;11117;48.644;9.006;2022-08-19T00:30:05;25.80;;;17.38;;
21905;SDS011;11117;48.644;9.006;2022-08-19T00:32:31;24.85;;;16.92;;
21905;SDS011;11117;48.644;9.006;2022-08-19T00:34:57;24.98;;;17.02;;
21905;SDS011;11117;48.644;9.006;2022-08-19T00:37:23;22.60;;;16.60;;
21905;SDS011;11117;48.644;9.006;2022-08-19T00:39:49;22.85;;;16.02;;
21905;SDS011;11117;48.644;9.006;2022-08-19T00:42:15;22.92;;;17.13;;
21905;SDS011;11117;48.644;9.006;2022-08-19T00:44:40;31.27;;;17.90;;
21905;SDS011;11117;48.644;9.006;2022-08-19T00:47:06;24.27;;;17.52;;
21905;SDS011;11117;48.644;9.006;2022-08-19T00:49:36;23.67;;;17.25;;
21905;SDS011;11117;48.644;9.006;2022-08-19T00:52:08;24.80;;;18.00;;
21905;SDS011;11117;48.644;9.006;2022-08-19T00:54:37;27.95;;;18.48;;
21905;SDS011;11117;48.644;9.006;2022-08-19T00:57:04;28.48;;;18.27;;
21905;SDS011;11117;48.644;9.006;2022-08-19T00:59:36;26.48;;;18.63;;
21905;SDS011;11117;48.644;9.006;2022-08-19T01:02:04;25.58;;;18.75;;
21905;SDS011;11117;48.644;9.006;2022-08-19T01:04:30;25.75;;;18.88;;
21905;SDS011;11117;48.644;9.006;2022-08-19T01:06:56;27.30;;;18.98;;
21905;SDS011;11117;48.644;9.006;2022-08-19T01:09:24;27.77;;;19.15;;
21905;SDS011;11117;48.644;9.006;2022-08-19T01:11:50;26.70;;;18.90;;
21905;SDS011;11117;48.644;9.006;2022-08-19T01:14:16;26.40;;;19.10;;
21905;SDS011;11117;48.644;9.006;2022-08-19T01:16:43;27.50;;;18.48;;
21905;SDS011;11117;48.644;9.006;2022-08-19T01:19:12;25.92;;;18.83;;
21905;SDS011;11117;48.644;9.006;2022-08-19T01:21:48;25.20;;;19.38;;
21905;SDS011;11117;48.644;9.006;2022-08-19T01:24:20;30.38;;;20.08;;
21905;SDS011;11117;48.644;9.006;2022-08-19T01:26:46;31.10;;;20.35;;
21905;SDS011;11117;48.644;9.006;2022-08-19T01:29:12;30.90;;;20.25;;
21905;SDS011;11117;48.644;9.006;2022-08-19T01:31:38;31.48;;;19.95;;
21905;SDS011;11117;48.644;9.006;2022-08-19T01:34:04;29.58;;;20.23;;
21905;SDS011;11117;48.644;9.006;2022-08-19T01:38:58;28.02;;;19.33;;
21905;SDS011;11117;48.644;9.006;2022-08-19T01:41:25;30.20;;;20.75;;
21905;SDS011;11117;48.644;9.006;2022-08-19T01:43:51;29.02;;;19.65;;
21905;SDS011;11117;48.644;9.006;2022-08-19T01:46:18;29.25;;;21.30;;
21905;SDS011;11117;48.644;9.006;2022-08-19T01:48:44;30.13;;;21.15;;
21905;SDS011;11117;48.644;9.006;2022-08-19T01:51:10;30.65;;;20.38;;
21905;SDS011;11117;48.644;9.006;2022-08-19T01:53:37;27.58;;;19.65;;
21905;SDS011;11117;48.644;9.006;2022-08-19T01:56:03;30.90;;;21.65;;
21905;SDS011;11117;48.644;9.006;2022-08-19T01:58:30;31.02;;;20.20;;
21905;SDS011;11117;48.644;9.006;2022-08-19T02:00:59;30.77;;;20.63;;
21905;SDS011;11117;48.644;9.006;2022-08-19T02:03:25;29.52;;;20.73;;
21905;SDS011;11117;48.644;9.006;2022-08-19T02:05:58;34.42;;;20.35;;
21905;SDS011;11117;48.644;9.006;2022-08-19T02:08:29;29.50;;;20.88;;
21905;SDS011;11117;48.644;9.006;2022-08-19T02:10:55;32.20;;;22.27;;
21905;SDS011;11117;48.644;9.006;2022-08-19T02:13:21;30.55;;;22.00;;
21905;SDS011;11117;48.644;9.006;2022-08-19T02:15:48;28.55;;;21.23;;
21905;SDS011;11117;48.644;9.006;2022-08-19T02:18:14;32.33;;;21.60;;
21905;SDS011;11117;48.644;9.006;2022-08-19T02:20:43;28.77;;;21.20;;
21905;SDS011;11117;48.644;9.006;2022-08-19T02:23:10;31.67;;;21.33;;
21905;SDS011;11117;48.644;9.006;2022-08-19T02:25:36;30.75;;;21.90;;
21905;SDS011;11117;48.644;9.006;2022-08-19T02:28:06;29.67;;;21.63;;
21905;SDS011;11117;48.644;9.006;2022-08-19T02:30:31;31.73;;;22.08;;
21905;SDS011;11117;48.644;9.006;2022-08-19T02:33:01;30.88;;;21.55;;
21905;SDS011;11117;48.644;9.006;2022-08-19T02:35:27;33.33;;;21.73;;
21905;SDS011;11117;48.644;9.006;2022-08-19T02:37:52;29.50;;;21.58;;
21905;SDS011;11117;48.644;9.006;2022-08-19T02:40:18;30.55;;;22.48;;
21905;SDS011;11117;48.644;9.006;2022-08-19T02:42:43;30.20;;;22.15;;
21905;SDS011;11117;48.644;9.006;2022-08-19T02:45:10;29.45;;;21.52;;
21905;SDS011;11117;48.644;9.006;2022-08-19T02:47:36;30.40;;;22.30;;
21905;SDS011;11117;48.644;9.006;2022-08-19T02:50:02;35.90;;;23.30;;
21905;SDS011;11117;48.644;9.006;2022-08-19T02:52:29;29.80;;;21.88;;
21905;SDS011;11117;48.644;9.006;2022-08-19T02:54:56;33.83;;;22.67;;
21905;SDS011;11117;48.644;9.006;2022-08-19T02:57:21;33.45;;;22.88;;
21905;SDS011;11117;48.644;9.006;2022-08-19T02:59:47;32.13;;;24.13;;
21905;SDS011;11117;48.644;9.006;2022-08-19T03:02:12;34.83;;;22.73;;
21905;SDS011;11117;48.644;9.006;2022-08-19T03:04:38;31.65;;;23.73;;
21905;SDS011;11117;48.644;9.006;2022-08-19T03:07:04;36.65;;;23.77;;
21905;SDS011;11117;48.644;9.006;2022-08-19T03:09:29;30.92;;;21.90;;
21905;SDS011;11117;48.644;9.006;2022-08-19T03:11:55;30.38;;;21.98;;
21905;SDS011;11117;48.644;9.006;2022-08-19T03:14:20;31.63;;;22.95;;
21905;SDS011;11117;48.644;9.006;2022-08-19T03:16:47;31.35;;;22.85;;
21905;SDS011;11117;48.644;9.006;2022-08-19T03:19:15;34.25;;;23.80;;
21905;SDS011;11117;48.644;9.006;2022-08-19T03:21:43;30.30;;;23.40;;
21905;SDS011;11117;48.644;9.006;2022-08-19T03:24:09;32.72;;;23.20;;
21905;SDS011;11117;48.644;9.006;2022-08-19T03:26:38;33.05;;;22.73;;
21905;SDS011;11117;48.644;9.006;2022-08-19T03:29:09;32.13;;;23.10;;
21905;SDS011;11117;48.644;9.006;2022-08-19T03:31:35;30.85;;;23.20;;
21905;SDS011;11117;48.644;9.006;2022-08-19T03:34:02;36.53;;;23.77;;
21905;SDS011;11117;48.644;9.006;2022-08-19T03:36:28;34.03;;;23.90;;
21905;SDS011;11117;48.644;9.006;2022-08-19T03:38:56;39.83;;;25.27;;
21905;SDS011;11117;48.644;9.006;2022-08-19T03:41:25;38.38;;;25.23;;
21905;SDS011;11117;48.644;9.006;2022-08-19T03:43:52;38.38;;;25.00;;
21905;SDS011;11117;48.644;9.006;2022-08-19T03:46:20;35.38;;;25.23;;
21905;SDS011;11117;48.644;9.006;2022-08-19T03:48:48;35.65;;;24.85;;
21905;SDS011;11117;48.644;9.006;2022-08-19T03:51:17;35.08;;;25.48;;
21905;SDS011;11117;48.644;9.006;2022-08-19T03:53:47;37.78;;;25.15;;
21905;SDS011;11117;48.644;9.006;2022-08-19T03:56:13;37.17;;;25.35;;
21905;SDS011;11117;48.644;9.006;2022-08-19T03:58:39;36.97;;;26.67;;
21905;SDS011;11117;48.644;9.006;2022-08-19T04:01:09;43.88;;;26.67;;
21905;SDS011;11117;48.644;9.006;2022-08-19T04:03:40;38.33;;;26.65;;
21905;SDS011;11117;48.644;9.006;2022-08-19T04:08:37;40.65;;;27.40;;
21905;SDS011;11117;48.644;9.006;2022-08-19T04:11:06;45.22;;;27.45;;
21905;SDS011;11117;48.644;9.006;2022-08-19T04:13:33;42.03;;;27.23;;
21905;SDS011;11117;48.644;9.006;2022-08-19T04:15:59;43.40;;;28.17;;
21905;SDS011;11117;48.644;9.006;2022-08-19T04:18:24;44.47;;;28.35;;
21905;SDS011;11117;48.644;9.006;2022-08-19T04:20:50;46.60;;;28.30;;
21905;SDS011;11117;48.644;9.006;2022-08-19T04:23:16;44.00;;;28.60;;
21905;SDS011;11117;48.644;9.006;2022-08-19T04:25:43;45.35;;;28.23;;
21905;SDS011;11117;48.644;9.006;2022-08-19T04:28:10;45.20;;;28.52;;
21905;SDS011;11117;48.644;9.006;2022-08-19T04:30:41;42.97;;;28.65;;
21905;SDS011;11117;48.644;9.006;2022-08-19T04:33:08;42.10;;;29.27;;
21905;SDS011;11117;48.644;9.006;2022-08-19T04:35:39;38.67;;;27.70;;
21905;SDS011;11117;48.644;9.006;2022-08-19T04:38:07;42.55;;;28.08;;
21905;SDS011;11117;48.644;9.006;2022-08-19T04:40:34;41.88;;;29.25;;
21905;SDS011;11117;48.644;9.006;2022-08-19T04:43:05;43.70;;;29.05;;
21905;SDS011;11117;48.644;9.006;2022-08-19T04:45:31;42.20;;;29.00;;
21905;SDS011;11117;48.644;9.006;2022-08-19T04:47:56;41.60;;;28.45;;
21905;SDS011;11117;48.644;9.006;2022-08-19T04:50:22;42.53;;;28.45;;
21905;SDS011;11117;48.644;9.006;2022-08-19T04:52:49;42.72;;;28.00;;
21905;SDS011;11117;48.644;9.006;2022-08-19T04:55:16;41.65;;;28.92;;
21905;SDS011;11117;48.644;9.006;2022-08-19T04:57:41;43.88;;;29.65;;
21905;SDS011;11117;48.644;9.006;2022-08-19T05:00:10;43.50;;;29.15;;
21905;SDS011;11117;48.644;9.006;2022-08-19T05:02:36;43.95;;;28.95;;
21905;SDS011;11117;48.644;9.006;2022-08-19T05:05:02;48.55;;;30.92;;
21905;SDS011;11117;48.644;9.006;2022-08-19T05:07:28;43.42;;;28.77;;
21905;SDS011;11117;48.644;9.006;2022-08-19T05:09:54;41.05;;;29.00;;
21905;SDS011;11117;48.644;9.006;2022-08-19T05:12:19;42.10;;;29.25;;
21905;SDS011;11117;48.644;9.006;2022-08-19T05:14:45;42.95;;;29.73;;
21905;SDS011;11117;48.644;9.006;2022-08-19T05:17:11;43.60;;;29.00;;
21905;SDS011;11117;48.644;9.006;2022-08-19T05:19:37;44.38;;;29.40;;
21905;SDS011;11117;48.644;9.006;2022-08-19T05:22:02;43.95;;;28.30;;
21905;SDS011;11117;48.644;9.006;2022-08-19T05:24:28;44.28;;;30.08;;
21905;SDS011;11117;48.644;9.006;2022-08-19T05:26:54;44.67;;;29.25;;
21905;SDS011;11117;48.644;9.006;2022-08-19T05:29:21;44.78;;;29.15;;
21905;SDS011;11117;48.644;9.006;2022-08-19T05:31:47;42.85;;;29.60;;
21905;SDS011;11117;48.644;9.006;2022-08-19T05:34:13;41.22;;;27.85;;
21905;SDS011;11117;48.644;9.006;2022-08-19T05:36:40;43.20;;;28.90;;
21905;SDS011;11117;48.644;9.006;2022-08-19T05:39:09;41.05;;;28.92;;
21905;SDS011;11117;48.644;9.006;2022-08-19T05:41:40;39.58;;;28.48;;
21905;SDS011;11117;48.644;9.006;2022-08-19T05:44:10;41.83;;;27.58;;
21905;SDS011;11117;48.644;9.006;2022-08-19T05:46:36;43.53;;;28.98;;
21905;SDS011;11117;48.644;9.006;2022-08-19T05:49:04;40.25;;;27.90;;
21905;SDS011;11117;48.644;9.006;2022-08-19T05:51:30;42.08;;;27.17;;
21905;SDS011;11117;48.644;9.006;2022-08-19T05:53:56;41.00;;;27.55;;
21905;SDS011;11117;48.644;9.006;2022-08-19T05:56:22;40.80;;;27.58;;
21905;SDS011;11117;48.644;9.006;2022-08-19T05:58:47;40.55;;;28.35;;
21905;SDS011;11117;48.644;9.006;2022-08-19T06:01:15;43.40;;;27.60;;
21905;SDS011;11117;48.644;9.006;2022-08-19T06:03:42;43.20;;;27.45;;
21905;SDS011;11117;48.644;9.006;2022-08-19T06:06:10;39.30;;;27.17;;
21905;SDS011;11117;48.644;9.006;2022-08-19T06:08:37;39.05;;;27.25;;
21905;SDS011;11117;48.644;9.006;2022-08-19T06:14:08;40.22;;;26.40;;
21905;SDS011;11117;48.644;9.006;2022-08-19T06:16:39;40.88;;;28.00;;
21905;SDS011;11117;48.644;9.006;2022-08-19T06:19:07;37.10;;;26.38;;
21905;SDS011;11117;48.644;9.006;2022-08-19T06:21:36;45.40;;;28.58;;
21905;SDS011;11117;48.644;9.006;2022-08-19T06:24:07;44.72;;;27.80;;
21905;SDS011;11117;48.644;9.006;2022-08-19T06:26:36;42.33;;;28.95;;
21905;SDS011;11117;48.644;9.006;2022-08-19T06:29:05;42.25;;;27.98;;
21905;SDS011;11117;48.644;9.006;2022-08-19T06:31:32;39.63;;;28.35;;
21905;SDS011;11117;48.644;9.006;2022-08-19T06:33:59;41.00;;;27.33;;
21905;SDS011;11117;48.644;9.006;2022-08-19T06:36:27;37.55;;;27.35;;
21905;SDS011;11117;48.644;9.006;2022-08-19T06:39:03;43.35;;;27.95;;
21905;SDS011;11117;48.644;9.006;2022-08-19T06:41:30;41.38;;;27.83;;
21905;SDS011;11117;48.644;9.006;2022-08-19T06:43:56;40.67;;;27.58;;
21905;SDS011;11117;48.644;9.006;2022-08-19T06:46:22;40.75;;;26.48;;
21905;SDS011;11117;48.644;9.006;2022-08-19T06:48:48;43.67;;;27.23;;
21905;SDS011;11117;48.644;9.006;2022-08-19T06:51:15;40.78;;;26.70;;
21905;SDS011;11117;48.644;9.006;2022-08-19T06:53:42;40.03;;;27.42;;
21905;SDS011;11117;48.644;9.006;2022-08-19T06:56:07;39.25;;;25.27;;
21905;SDS011;11117;48.644;9.006;2022-08-19T06:58:33;38.08;;;26.20;;
21905;SDS011;11117;48.644;9.006;2022-08-19T07:00:59;40.75;;;26.38;;
21905;SDS011;11117;48.644;9.006;2022-08-19T07:03:30;35.17;;;25.83;;
21905;SDS011;11117;48.644;9.006;2022-08-19T07:05:58;38.28;;;26.88;;
21905;SDS011;11117;48.644;9.006;2022-08-19T07:08:32;38.65;;;26.20;;
21905;SDS011;11117;48.644;9.006;2022-08-19T07:10:58;35.63;;;23.85;;
21905;SDS011;11117;48.644;9.006;2022-08-19T07:13:23;36.72;;;24.85;;
21905;SDS011;11117;48.644;9.006;2022-08-19T07:15:49;36.72;;;23.90;;
21905;SDS011;11117;48.644;9.006;2022-08-19T07:18:14;33.70;;;24.38;;
21905;SDS011;11117;48.644;9.006;2022-08-19T07:20:41;33.35;;;22.92;;
21905;SDS011;11117;48.644;9.006;2022-08-19T07:23:07;39.88;;;23.95;;
21905;SDS011;11117;48.644;9.006;2022-08-19T07:25:33;40.42;;;23.27;;
21905;SDS011;11117;48.644;9.006;2022-08-19T07:28:00;31.35;;;22.45;;
21905;SDS011;11117;48.644;9.006;2022-08-19T07:30:26;32.17;;;23.13;;
21905;SDS011;11117;48.644;9.006;2022-08-19T07:32:51;32.88;;;21.40;;
21905;SDS011;11117;48.644;9.006;2022-08-19T07:35:17;30.60;;;21.10;;
21905;SDS011;11117;48.644;9.006;2022-08-19T07:37:42;33.63;;;22.65;;
21905;SDS011;11117;48.644;9.006;2022-08-19T07:40:08;32.42;;;22.20;;
21905;SDS011;11117;48.644;9.006;2022-08-19T07:42:34;24.88;;;15.27;;
21905;SDS011;11117;48.644;9.006;2022-08-19T07:45:00;30.95;;;20.88;;
21905;SDS011;11117;48.644;9.006;2022-08-19T07:47:25;30.02;;;19.02;;
21905;SDS011;11117;48.644;9.006;2022-08-19T07:49:51;31.50;;;22.75;;
21905;SDS011;11117;48.644;9.006;2022-08-19T07:52:16;30.10;;;20.65;;
21905;SDS011;11117;48.644;9.006;2022-08-19T07:54:42;32.75;;;22.40;;
21905;SDS011;11117;48.644;9.006;2022-08-19T07:57:08;29.77;;;21.35;;
21905;SDS011;11117;48.644;9.006;2022-08-19T07:59:34;27.45;;;21.88;;
21905;SDS011;11117;48.644;9.006;2022-08-19T08:02:00;29.77;;;20.83;;
21905;SDS011;11117;48.644;9.006;2022-08-19T08:04:26;32.88;;;21.95;;
21905;SDS011;11117;48.644;9.006;2022-08-19T08:06:54;31.50;;;20.90;;
21905;SDS011;11117;48.644;9.006;2022-08-19T08:09:21;28.25;;;21.67;;
21905;SDS011;11117;48.644;9.006;2022-08-19T08:11:51;32.80;;;22.23;;
21905;SDS011;11117;48.644;9.006;2022-08-19T08:14:21;30.42;;;21.40;;
21905;SDS011;11117;48.644;9.006;2022-08-19T08:17:10;29.88;;;22.95;;
21905;SDS011;11117;48.644;9.006;2022-08-19T08:19:37;32.17;;;23.05;;
21905;SDS011;11117;48.644;9.006;2022-08-19T08:22:03;33.88;;;23.55;;
21905;SDS011;11117;48.644;9.006;2022-08-19T08:24:29;26.52;;;18.65;;
21905;SDS011;11117;48.644;9.006;2022-08-19T08:26:55;30.38;;;22.73;;
21905;SDS011;11117;48.644;9.006;2022-08-19T08:29:22;32.20;;;21.92;;
21905;SDS011;11117;48.644;9.006;2022-08-19T08:31:48;32.63;;;22.50;;
21905;SDS011;11117;48.644;9.006;2022-08-19T08:34:15;33.58;;;23.35;;
21905;SDS011;11117;48.644;9.006;2022-08-19T08:36:42;32.38;;;22.92;;
21905;SDS011;11117;48.644;9.006;2022-08-19T08:39:20;32.38;;;22.10;;
21905;SDS011;11117;48.644;9.006;2022-08-19T08:44:41;33.42;;;23.05;;
21905;SDS011;11117;48.644;9.006;2022-08-19T08:47:32;30.65;;;22.02;;
21905;SDS011;11117;48.644;9.006;2022-08-19T08:50:04;32.60;;;22.17;;
21905;SDS011;11117;48.644;9.006;2022-08-19T08:52:53;36.03;;;22.40;;
21905;SDS011;11117;48.644;9.006;2022-08-19T08:55:22;35.88;;;21.77;;
21905;SDS011;11117;48.644;9.006;2022-08-19T08:57:59;33.85;;;22.45;;
21905;SDS011;11117;48.644;9.006;2022-08-19T09:00:35;37.03;;;21.25;;
21905;SDS011;11117;48.644;9.006;2022-08-19T09:03:15;29.27;;;21.13;;
21905;SDS011;11117;48.644;9.006;2022-08-19T09:08:26;26.90;;;18.40;;
21905;SDS011;11117;48.644;9.006;2022-08-19T09:10:59;32.30;;;21.20;;
21905;SDS011;11117;48.644;9.006;2022-08-19T09:16:31;32.22;;;20.60;;
21905;SDS011;11117;48.644;9.006;2022-08-19T09:18:58;26.67;;;17.02;;
21905;SDS011;11117;48.644;9.006;2022-08-19T09:21:28;26.52;;;17.75;;
21905;SDS011;11117;48.644;9.006;2022-08-19T09:23:54;27.58;;;20.35;;
21905;SDS011;11117;48.644;9.006;2022-08-19T09:26:21;29.20;;;19.50;;
21905;SDS011;11117;48.644;9.006;2022-08-19T09:28:48;31.30;;;20.33;;
21905;SDS011;11117;48.644;9.006;2022-08-19T09:31:17;27.05;;;19.73;;
21905;SDS011;11117;48.644;9.006;2022-08-19T09:33:45;30.27;;;19.67;;
21905;SDS011;11117;48.644;9.006;2022-08-19T09:36:13;22.60;;;18.33;;
21905;SDS011;11117;48.644;9.006;2022-08-19T09:38:40;26.35;;;20.65;;
21905;SDS011;11117;48.644;9.006;2022-08-19T09:41:08;22.25;;;13.88;;
21905;SDS011;11117;48.644;9.006;2022-08-19T09:43:39;33.83;;;18.70;;
21905;SDS011;11117;48.644;9.006;2022-08-19T09:46:06;27.42;;;19.55;;
21905;SDS011;11117;48.644;9.006;2022-08-19T09:48:32;25.02;;;20.00;;
21905;SDS011;11117;48.644;9.006;2022-08-19T09:51:02;28.30;;;19.50;;
21905;SDS011;11117;48.644;9.006;2022-08-19T09:53:32;28.10;;;20.60;;
21905;SDS011;11117;48.644;9.006;2022-08-19T09:56:02;28.45;;;18.90;;
21905;SDS011;11117;48.644;9.006;2022-08-19T09:58:29;26.38;;;19.42;;
21905;SDS011;11117;48.644;9.006;2022-08-19T10:00:55;28.88;;;18.90;;
21905;SDS011;11117;48.644;9.006;2022-08-19T10:03:21;25.60;;;18.67;;
21905;SDS011;11117;48.644;9.006;2022-08-19T10:05:47;25.25;;;19.23;;
21905;SDS011;11117;48.644;9.006;2022-08-19T10:08:12;25.75;;;19.35;;
21905;SDS011;11117;48.644;9.006;2022-08-19T10:10:38;24.52;;;18.98;;
21905;SDS011;11117;48.644;9.006;2022-08-19T10:13:08;28.30;;;19.00;;
21905;SDS011;11117;48.644;9.006;2022-08-19T10:15:34;26.13;;;18.88;;
21905;SDS011;11117;48.644;9.006;2022-08-19T10:18:00;26.15;;;17.60;;
21905;SDS011;11117;48.644;9.006;2022-08-19T10:20:26;27.08;;;19.40;;
21905;SDS011;11117;48.644;9.006;2022-08-19T10:22:52;24.33;;;18.05;;
21905;SDS011;11117;48.644;9.006;2022-08-19T10:25:17;25.00;;;17.00;;
21905;SDS011;11117;48.644;9.006;2022-08-19T10:27:43;20.55;;;14.63;;
21905;SDS011;11117;48.644;9.006;2022-08-19T10:30:09;23.52;;;17.02;;
21905;SDS011;11117;48.644;9.006;2022-08-19T10:32:35;23.23;;;15.82;;
21905;SDS011;11117;48.644;9.006;2022-08-19T10:35:01;21.58;;;15.93;;
21905;SDS011;11117;48.644;9.006;2022-08-19T10:37:27;19.85;;;14.90;;
21905;SDS011;11117;48.644;9.006;2022-08-19T10:39:53;21.77;;;15.15;;
21905;SDS011;11117;48.644;9.006;2022-08-19T10:42:19;21.42;;;15.40;;
21905;SDS011;11117;48.644;9.006;2022-08-19T10:44:44;18.40;;;14.25;;
21905;SDS011;11117;48.644;9.006;2022-08-19T10:47:10;23.52;;;14.50;;
21905;SDS011;11117;48.644;9.006;2022-08-19T10:49:37;20.58;;;14.00;;
21905;SDS011;11117;48.644;9.006;2022-08-19T10:52:03;19.38;;;13.98;;
21905;SDS011;11117;48.644;9.006;2022-08-19T10:54:29;19.88;;;13.57;;
21905;SDS011;11117;48.644;9.006;2022-08-19T10:56:54;22.55;;;14.18;;
21905;SDS011;11117;48.644;9.006;2022-08-19T10:59:29;15.05;;;12.10;;
21905;SDS011;11117;48.644;9.006;2022-08-19T11:02:01;15.93;;;11.23;;
21905;SDS011;11117;48.644;9.006;2022-08-19T11:04:29;16.65;;;10.88;;
21905;SDS011;11117;48.644;9.006;2022-08-19T11:06:55;16.88;;;11.43;;
21905;SDS011;11117;48.644;9.006;2022-08-19T11:09:21;17.27;;;11.68;;
21905;SDS011;11117;48.644;9.006;2022-08-19T11:11:48;15.18;;;11.23;;
21905;SDS011;11117;48.644;9.006;2022-08-19T11:14:14;16.52;;;11.88;;
21905;SDS011;11117;48.644;9.006;2022-08-19T11:16:42;14.38;;;11.75;;
21905;SDS011;11117;48.644;9.006;2022-08-19T11:19:09;18.85;;;12.00;;
21905;SDS011;11117;48.644;9.006;2022-08-19T11:21:37;19.52;;;12.43;;
21905;SDS011;11117;48.644;9.006;2022-08-19T11:24:08;16.23;;;12.23;;
21905;SDS011;11117;48.644;9.006;2022-08-19T11:26:35;16.95;;;11.80;;
21905;SDS011;11117;48.644;9.006;2022-08-19T11:29:03;15.18;;;12.40;;
21905;SDS011;11117;48.644;9.006;2022-08-19T11:31:30;17.25;;;12.90;;
21905;SDS011;11117;48.644;9.006;2022-08-19T11:33:57;17.15;;;12.10;;
21905;SDS011;11117;48.644;9.006;2022-08-19T11:36:24;15.32;;;11.50;;
21905;SDS011;11117;48.644;9.006;2022-08-19T11:38:51;15.73;;;11.15;;
21905;SDS011;11117;48.644;9.006;2022-08-19T11:41:18;14.75;;;11.65;;
21905;SDS011;11117;48.644;9.006;2022-08-19T11:43:45;17.23;;;11.85;;
21905;SDS011;11117;48.644;9.006;2022-08-19T11:46:12;18.33;;;11.30;;
21905;SDS011;11117;48.644;9.006;2022-08-19T11:48:40;16.13;;;11.13;;
21905;SDS011;11117;48.644;9.006;2022-08-19T11:51:09;15.18;;;10.95;;
21905;SDS011;11117;48.644;9.006;2022-08-19T11:53:38;14.38;;;11.80;;
21905;SDS011;11117;48.644;9.006;2022-08-19T11:56:04;14.75;;;11.05;;
21905;SDS011;11117;48.644;9.006;2022-08-19T11:58:31;19.08;;;11.27;;
21905;SDS011;11117;48.644;9.006;2022-08-19T12:00:57;16.10;;;10.48;;
21905;SDS011;11117;48.644;9.006;2022-08-19T12:03:23;13.57;;;10.82;;
21905;SDS011;11117;48.644;9.006;2022-08-19T12:05:49;14.55;;;10.30;;
21905;SDS011;11117;48.644;9.006;2022-08-19T12:08:15;19.23;;;10.73;;
21905;SDS011;11117;48.644;9.006;2022-08-19T12:10:41;13.88;;;10.35;;
21905;SDS011;11117;48.644;9.006;2022-08-19T12:13:07;13.35;;;10.60;;
21905;SDS011;11117;48.644;9.006;2022-08-19T12:15:37;14.48;;;10.18;;
21905;SDS011;11117;48.644;9.006;2022-08-19T12:18:04;13.05;;;10.32;;
21905;SDS011;11117;48.644;9.006;2022-08-19T12:20:30;15.02;;;9.70;;
21905;SDS011;11117;48.644;9.006;2022-08-19T12:22:55;13.23;;;10.40;;
21905;SDS011;11117;48.644;9.006;2022-08-19T12:25:21;14.38;;;9.75;;
21905;SDS011;11117;48.644;9.006;2022-08-19T12:27:47;13.82;;;10.52;;
21905;SDS011;11117;48.644;9.006;2022-08-19T12:30:12;13.52;;;9.43;;
21905;SDS011;11117;48.644;9.006;2022-08-19T12:32:39;17.55;;;9.10;;
21905;SDS011;11117;48.644;9.006;2022-08-19T12:35:06;10.25;;;9.00;;
21905;SDS011;11117;48.644;9.006;2022-08-19T12:37:32;12.15;;;9.20;;
21905;SDS011;11117;48.644;9.006;2022-08-19T12:39:58;10.80;;;8.57;;
21905;SDS011;11117;48.644;9.006;2022-08-19T12:42:24;9.05;;;7.20;;
21905;SDS011;11117;48.644;9.006;2022-08-19T12:44:50;10.35;;;8.10;;
21905;SDS011;11117;48.644;9.006;2022-08-19T12:47:16;8.25;;;7.40;;
21905;SDS011;11117;48.644;9.006;2022-08-19T12:49:41;11.35;;;8.35;;
21905;SDS011;11117;48.644;9.006;2022-08-19T12:52:08;9.75;;;7.55;;
21905;SDS011;11117;48.644;9.006;2022-08-19T12:54:34;10.73;;;7.63;;
21905;SDS011;11117;48.644;9.006;2022-08-19T12:57:00;10.25;;;7.80;;
21905;SDS011;11117;48.644;9.006;2022-08-19T12:59:30;8.02;;;6.55;;
21905;SDS011;11117;48.644;9.006;2022-08-19T13:01:55;9.10;;;7.03;;
21905;SDS011;11117;48.644;9.006;2022-08-19T13:04:21;9.02;;;6.78;;
21905;SDS011;11117;48.644;9.006;2022-08-19T13:06:49;17.13;;;6.88;;
21905;SDS011;11117;48.644;9.006;2022-08-19T13:09:15;9.82;;;7.30;;
21905;SDS011;11117;48.644;9.006;2022-08-19T13:11:40;9.38;;;6.60;;
21905;SDS011;11117;48.644;9.006;2022-08-19T13:14:06;9.27;;;6.95;;
21905;SDS011;11117;48.644;9.006;2022-08-19T13:16:31;7.72;;;6.88;;
21905;SDS011;11117;48.644;9.006;2022-08-19T13:18:57;10.73;;;6.18;;
21905;SDS011;11117;48.644;9.006;2022-08-19T13:21:24;11.07;;;6.55;;
21905;SDS011;11117;48.644;9.006;2022-08-19T13:23:57;8.43;;;6.13;;
21905;SDS011;11117;48.644;9.006;2022-08-19T13:26:23;7.40;;;6.20;;
21905;SDS011;11117;48.644;9.006;2022-08-19T13:28:48;7.10;;;5.97;;
21905;SDS011;11117;48.644;9.006;2022-08-19T13:31:15;9.55;;;6.60;;
21905;SDS011;11117;48.644;9.006;2022-08-19T13:33:42;7.13;;;6.43;;
21905;SDS011;11117;48.644;9.006;2022-08-19T13:36:07;11.90;;;6.47;;
21905;SDS011;11117;48.644;9.006;2022-08-19T13:38:33;10.88;;;6.60;;
21905;SDS011;11117;48.644;9.006;2022-08-19T13:41:07;9.88;;;6.50;;
21905;SDS011;11117;48.644;9.006;2022-08-19T13:43:33;9.98;;;7.07;;
21905;SDS011;11117;48.644;9.006;2022-08-19T13:46:07;8.60;;;7.38;;
21905;SDS011;11117;48.644;9.006;2022-08-19T13:48:34;7.97;;;7.18;;
21905;SDS011;11117;48.644;9.006;2022-08-19T13:51:00;9.00;;;8.10;;
21905;SDS011;11117;48.644;9.006;2022-08-19T13:53:29;11.52;;;8.63;;
21905;SDS011;11117;48.644;9.006;2022-08-19T13:55:54;12.13;;;8.25;;
21905;SDS011;11117;48.644;9.006;2022-08-19T13:58:20;12.52;;;8.65;;
21905;SDS011;11117;48.644;9.006;2022-08-19T14:00:46;10.38;;;8.38;;
21905;SDS011;11117;48.644;9.006;2022-08-19T14:03:12;11.95;;;8.10;;
21905;SDS011;11117;48.644;9.006;2022-08-19T14:05:38;9.20;;;8.30;;
21905;SDS011;11117;48.644;9.006;2022-08-19T14:08:04;9.10;;;7.63;;
21905;SDS011;11117;48.644;9.006;2022-08-19T14:10:30;9.40;;;7.88;;
21905;SDS011;11117;48.644;9.006;2022-08-19T14:12:57;10.82;;;9.25;;
21905;SDS011;11117;48.644;9.006;2022-08-19T14:15:24;9.27;;;8.32;;
21905;SDS011;11117;48.644;9.006;2022-08-19T14:17:52;11.07;;;8.80;;
21905;SDS011;11117;48.644;9.006;2022-08-19T14:20:18;11.07;;;8.35;;
21905;SDS011;11117;48.644;9.006;2022-08-19T14:22:44;9.10;;;8.20;;
21905;SDS011;11117;48.644;9.006;2022-08-19T14:25:13;9.65;;;8.65;;
21905;SDS011;11117;48.644;9.006;2022-08-19T14:27:49;9.48;;;7.68;;
21905;SDS011;11117;48.644;9.006;2022-08-19T14:30:17;9.65;;;8.15;;
21905;SDS011;11117;48.644;9.006;2022-08-19T14:32:45;15.07;;;8.10;;
21905;SDS011;11117;48.644;9.006;2022-08-19T14:35:11;9.55;;;8.65;;
21905;SDS011;11117;48.644;9.006;2022-08-19T14:37:38;8.75;;;7.95;;
21905;SDS011;11117;48.644;9.006;2022-08-19T14:40:04;11.50;;;7.75;;
21905;SDS011;11117;48.644;9.006;2022-08-19T14:42:30;12.30;;;8.32;;